Time;durP1;ratioP1;P1;durP2;ratioP2;P2;SDS_P1;SDS_P2;PMS_P1;PMS_P2;Temp;Humidity;BMP_temperature;BMP_pressure;BME280_temperature;BME280_humidity;BME280_pressure;Samples;Min_cycle;Max_cycle;Signal;HPM_P1;HPM_P2
2023/07/27 00:01:54;;;;;;;10.15;9.10;;;;;;;-143.21;63.36;70942.06;5112624;28;20200;-83
2023/07/27 00:04:22;;;;;;;11.23;9.73;;;;;;;-143.21;63.85;70949.97;5112729;28;20208;-83
2023/07/27 00:06:50;;;;;;;14.93;9.20;;;;;;;-143.21;63.47;70971.78;5112425;28;20188;-83
2023/07/27 00:09:17;;;;;;;9.90;7.95;;;;;;;-143.21;63.04;70993.59;5112567;28;20188;-83
2023/07/27 00:11:44;;;;;;;11.10;7.72;;;;;;;-143.21;63.11;71027.28;5112330;28;20192;-83
2023/07/27 00:14:11;;;;;;;8.48;7.53;;;;;;;-143.21;62.76;71039.19;5112509;28;20192;-83
2023/07/27 00:16:38;;;;;;;8.85;5.93;;;;;;;-143.21;61.86;71066.94;5112338;28;20658;-83
2023/07/27 00:19:05;;;;;;;6.00;4.93;;;;;;;-143.21;61.49;71082.81;5112709;28;20682;-84
2023/07/27 00:21:32;;;;;;;7.90;5.28;;;;;;;-143.21;61.08;71055.06;5112546;28;20601;-83
2023/07/27 00:24:00;;;;;;;5.13;4.60;;;;;;;-143.21;61.10;71047.13;5112413;28;20220;-84
2023/07/27 00:26:27;;;;;;;6.60;4.80;;;;;;;-143.21;60.40;71037.22;5112652;28;20196;-84
2023/07/27 00:28:54;;;;;;;7.40;4.72;;;;;;;-143.21;60.47;71027.28;5112583;28;20199;-84
2023/07/27 00:31:20;;;;;;;6.65;5.00;;;;;;;-143.21;60.57;71043.16;5113206;28;20199;-82
2023/07/27 00:33:47;;;;;;;8.23;4.97;;;;;;;-143.21;60.74;71055.06;5117662;28;20192;-86
2023/07/27 00:36:14;;;;;;;6.85;4.15;;;;;;;-143.21;61.04;71053.06;5120716;28;20207;-87
2023/07/27 00:38:41;;;;;;;8.80;5.10;;;;;;;-143.21;60.81;71035.22;5114867;28;20674;-86
2023/07/27 00:41:09;;;;;;;6.50;4.80;;;;;;;-143.21;60.68;71047.13;5112183;28;20199;-85
2023/07/27 00:43:36;;;;;;;6.93;4.35;;;;;;;-143.21;60.75;71055.06;5117579;28;20251;-85
2023/07/27 00:46:03;;;;;;;6.15;5.13;;;;;;;-143.21;61.59;71092.72;5120491;28;20192;-85
2023/07/27 00:48:30;;;;;;;8.25;4.97;;;;;;;-143.21;61.77;71100.66;5115009;28;20196;-85
2023/07/27 00:50:57;;;;;;;6.20;4.57;;;;;;;-143.21;62.39;71124.44;5112233;28;20282;-85
2023/07/27 00:53:24;;;;;;;5.45;4.70;;;;;;;-143.21;61.91;71120.47;5112749;28;20251;-85
2023/07/27 00:55:52;;;;;;;7.38;4.03;;;;;;;-143.21;61.23;71116.50;5112849;28;20203;-85
2023/07/27 00:58:20;;;;;;;4.72;4.10;;;;;;;-143.21;60.80;71116.50;5112967;28;20195;-85
2023/07/27 01:00:47;;;;;;;7.03;3.45;;;;;;;-143.21;60.34;71110.56;5112304;28;20196;-85
2023/07/27 01:03:14;;;;;;;4.00;3.53;;;;;;;-143.21;59.86;71098.66;5112384;28;20219;-85
2023/07/27 01:05:40;;;;;;;4.78;3.40;;;;;;;-143.21;59.69;71090.72;5111889;28;20281;-84
2023/07/27 01:08:08;;;;;;;3.55;3.13;;;;;;;-143.21;59.73;71100.66;5112036;28;20219;-85
2023/07/27 01:10:46;;;;;;;4.43;3.33;;;;;;;-143.21;59.82;71120.47;5109720;28;20196;-83
2023/07/27 01:13:27;;;;;;;5.82;3.13;;;;;;;-143.21;60.43;71124.44;5111869;28;20202;-83
2023/07/27 01:15:59;;;;;;;3.35;3.05;;;;;;;-143.21;60.44;71134.34;5111733;28;20722;-83
2023/07/27 01:18:33;;;;;;;3.90;3.47;;;;;;;-143.21;60.41;71134.34;5112184;28;20181;-83
2023/07/27 01:21:11;;;;;;;5.50;3.38;;;;;;;-143.21;60.73;71154.16;5111991;28;20204;-83
2023/07/27 01:24:06;;;;;;;6.93;3.03;;;;;;;-143.21;61.57;71189.84;5111681;28;20236;-83
2023/07/27 01:26:54;;;;;;;5.22;3.30;;;;;;;-143.21;62.18;71201.75;5111892;28;20200;-83
2023/07/27 01:29:45;;;;;;;3.92;3.10;;;;;;;-143.21;61.99;71205.72;5111708;28;20192;-83
2023/07/27 01:32:16;;;;;;;5.78;3.40;;;;;;;-143.21;62.12;71219.59;5111828;28;20192;-82
2023/07/27 01:34:47;;;;;;;3.70;3.28;;;;;;;-143.21;62.42;71239.41;5111773;28;20568;-82
2023/07/27 01:37:18;;;;;;;5.18;3.40;;;;;;;-143.21;62.14;71229.50;5111768;28;20596;-82
2023/07/27 01:39:51;;;;;;;4.13;3.10;;;;;;;-143.21;61.81;71227.53;5111458;28;20678;-82
2023/07/27 01:42:19;;;;;;;5.18;3.17;;;;;;;-143.21;61.49;71225.53;5111659;28;20200;-82
2023/07/27 01:44:46;;;;;;;3.88;3.45;;;;;;;-143.21;62.46;71243.38;5111641;28;20197;-85
2023/07/27 01:47:16;;;;;;;4.07;3.45;;;;;;;-143.21;62.55;71237.44;5111595;28;20563;-84
2023/07/27 01:49:44;;;;;;;5.22;3.50;;;;;;;-143.21;62.66;71233.47;5111256;28;20674;-83
2023/07/27 01:52:14;;;;;;;5.05;3.80;;;;;;;-143.21;62.04;71217.59;5110994;28;20239;-85
2023/07/27 01:54:41;;;;;;;5.35;3.72;;;;;;;-143.21;61.78;71199.78;5114330;28;20195;-86
2023/07/27 01:57:09;;;;;;;5.00;3.70;;;;;;;-143.21;61.78;71191.84;5115472;28;20200;-85
2023/07/27 01:59:38;;;;;;;4.40;4.00;;;;;;;-143.21;62.16;71215.63;5112538;28;20705;-86
2023/07/27 02:02:06;;;;;;;7.78;4.38;;;;;;;-143.21;62.36;71235.44;5100017;28;20258;-85
2023/07/27 02:04:35;;;;;;;4.80;4.13;;;;;;;-143.21;62.62;71243.38;5115071;28;20220;-85
2023/07/27 02:07:02;;;;;;;6.47;4.20;;;;;;;-143.21;62.65;71245.38;5115350;28;20196;-85
2023/07/27 02:09:28;;;;;;;6.15;4.55;;;;;;;-143.21;62.60;71259.25;5115624;27;20196;-85
2023/07/27 02:12:01;;;;;;;5.68;4.95;;;;;;;-143.21;63.20;71275.09;5115032;28;20203;-85
2023/07/27 02:14:35;;;;;;;6.90;5.15;;;;;;;-143.21;62.92;71245.38;5115022;28;20188;-84
2023/07/27 02:17:08;;;;;;;7.30;5.45;;;;;;;-143.21;63.23;71261.22;5114813;28;20214;-85
2023/07/27 02:19:41;;;;;;;6.45;5.68;;;;;;;-143.21;63.32;71269.16;5115404;28;20200;-86
2023/07/27 02:22:10;;;;;;;10.05;5.63;;;;;;;-143.21;63.28;71271.13;5115124;28;20204;-85
2023/07/27 02:24:38;;;;;;;8.38;6.03;;;;;;;-143.21;62.66;71269.16;5115498;28;20220;-86
2023/07/27 02:27:05;;;;;;;6.97;6.38;;;;;;;-143.21;63.56;71290.97;5114681;28;20199;-85
2023/07/27 02:29:32;;;;;;;9.40;7.07;;;;;;;-143.21;63.92;71306.81;5114716;28;20200;-85
2023/07/27 02:31:59;;;;;;;7.90;7.07;;;;;;;-143.21;63.70;71294.94;5115266;28;20195;-85
2023/07/27 02:34:26;;;;;;;8.45;7.18;;;;;;;-143.21;63.25;71285.03;5114453;28;20667;-85
2023/07/27 02:36:54;;;;;;;7.97;7.18;;;;;;;-143.21;62.79;71275.09;5114362;27;20204;-86
2023/07/27 02:39:21;;;;;;;8.20;7.40;;;;;;;-143.21;62.68;71283.03;5114440;28;20215;-85
2023/07/27 02:41:48;;;;;;;8.45;7.65;;;;;;;-143.21;62.85;71288.97;5113878;27;20188;-85
2023/07/27 02:44:14;;;;;;;8.13;7.32;;;;;;;-143.21;62.76;71281.06;5113873;28;20216;-85
2023/07/27 02:46:41;;;;;;;8.10;7.38;;;;;;;-143.21;62.72;71292.94;5114218;28;20223;-85
2023/07/27 02:49:08;;;;;;;8.50;7.20;;;;;;;-143.21;61.79;71292.94;5114050;28;20207;-85
2023/07/27 02:51:35;;;;;;;8.93;7.13;;;;;;;-143.21;61.45;71304.84;5113418;28;20231;-85
2023/07/27 02:54:03;;;;;;;8.27;7.47;;;;;;;-143.21;61.55;71324.66;5113849;28;20705;-86
2023/07/27 02:56:30;;;;;;;9.07;6.45;;;;;;;-143.21;61.82;71340.53;5113652;27;20663;-85
2023/07/27 02:58:57;;;;;;;8.25;7.47;;;;;;;-143.21;61.92;71336.56;5114084;28;20207;-86
2023/07/27 03:01:24;;;;;;;8.10;6.97;;;;;;;-143.21;61.25;71330.63;5114782;28;20226;-86
2023/07/27 03:03:50;;;;;;;8.70;7.28;;;;;;;-143.21;61.74;71364.31;5113680;28;20594;-87
2023/07/27 03:06:17;;;;;;;8.88;7.63;;;;;;;-143.21;62.47;71392.06;5112580;28;20204;-87
2023/07/27 03:08:44;;;;;;;11.57;8.00;;;;;;;-143.21;62.23;71384.16;5113596;27;20207;-86
2023/07/27 03:11:12;;;;;;;8.68;7.88;;;;;;;-143.21;62.15;71390.09;5113462;28;20203;-86
2023/07/27 03:13:39;;;;;;;10.55;7.55;;;;;;;-143.21;61.98;71400.00;5113571;28;20208;-87
2023/07/27 03:16:06;;;;;;;11.48;8.13;;;;;;;-143.21;62.59;71423.78;5113777;28;20200;-87
2023/07/27 03:18:34;;;;;;;8.90;8.00;;;;;;;-143.21;62.62;71455.53;5113833;28;20196;-86
2023/07/27 03:21:03;;;;;;;9.93;7.83;;;;;;;-143.21;62.49;71457.50;5114007;28;20207;-86
2023/07/27 03:23:30;;;;;;;10.20;7.50;;;;;;;-143.21;61.73;71457.50;5113794;27;20224;-86
2023/07/27 03:25:57;;;;;;;12.95;7.53;;;;;;;-143.21;61.35;71457.50;5114117;28;20200;-87
2023/07/27 03:28:25;;;;;;;8.33;7.47;;;;;;;-143.21;61.27;71465.44;5113030;28;20200;-87
2023/07/27 03:30:52;;;;;;;7.63;6.93;;;;;;;-143.21;61.17;71471.38;5099955;28;20199;-86
2023/07/27 03:33:19;;;;;;;9.37;6.90;;;;;;;-143.21;61.07;71485.25;5107337;28;20655;-86
2023/07/27 03:35:46;;;;;;;12.77;7.20;;;;;;;-143.21;61.28;71487.25;5113562;28;20199;-86
2023/07/27 03:38:13;;;;;;;7.65;6.95;;;;;;;-143.21;61.04;71503.09;5113286;28;20196;-84
2023/07/27 03:40:40;;;;;;;8.53;7.73;;;;;;;-143.21;61.30;71515.00;5113123;28;20200;-84
2023/07/27 03:43:07;;;;;;;9.07;6.93;;;;;;;-143.21;61.05;71530.88;5113152;28;20196;-84
2023/07/27 03:45:35;;;;;;;7.57;6.77;;;;;;;-143.21;60.76;71516.97;5113133;28;20192;-84
2023/07/27 03:48:02;;;;;;;7.27;6.17;;;;;;;-143.21;60.53;71528.88;5112928;28;20242;-83
2023/07/27 03:50:29;;;;;;;6.80;6.10;;;;;;;-143.21;60.84;71530.88;5112514;28;20959;-84
2023/07/27 03:52:57;;;;;;;8.33;6.20;;;;;;;-143.21;61.05;71528.88;5111832;28;20588;-84
2023/07/27 03:55:24;;;;;;;7.20;6.50;;;;;;;-143.21;60.79;71516.97;5112468;28;20199;-84
2023/07/27 03:57:51;;;;;;;7.03;5.83;;;;;;;-143.21;59.63;71505.09;5112121;28;20706;-84
2023/07/27 04:00:18;;;;;;;9.50;5.70;;;;;;;-143.21;58.92;71526.91;5103679;28;20585;-86
2023/07/27 04:02:46;;;;;;;6.40;5.80;;;;;;;-143.21;59.18;71524.91;5092226;28;20224;-85
2023/07/27 04:05:13;;;;;;;5.53;5.03;;;;;;;-143.21;58.30;71528.88;5092238;28;20221;-84
2023/07/27 04:07:40;;;;;;;5.77;4.60;;;;;;;-143.21;57.79;71530.88;5099819;28;20199;-84
2023/07/27 04:10:07;;;;;;;5.93;4.80;;;;;;;-143.21;57.34;71516.97;5112535;28;20204;-85
2023/07/27 04:12:34;;;;;;;5.27;4.77;;;;;;;-143.21;57.17;71534.81;5112407;28;20199;-84
2023/07/27 04:15:01;;;;;;;8.27;5.07;;;;;;;-143.21;56.58;71534.81;5112397;28;20192;-85
2023/07/27 04:17:31;;;;;;;4.87;4.37;;;;;;;-143.21;56.82;71560.59;5111965;28;20195;-85
2023/07/27 04:19:59;;;;;;;7.67;4.27;;;;;;;-143.21;56.86;71568.53;5112023;28;20616;-85
2023/07/27 04:22:26;;;;;;;8.07;3.90;;;;;;;-143.21;56.12;71576.47;5112060;28;20207;-85
2023/07/27 04:24:53;;;;;;;4.33;3.53;;;;;;;-143.21;56.67;71582.41;5111477;28;20227;-85
2023/07/27 04:27:20;;;;;;;4.37;3.67;;;;;;;-143.21;56.23;71586.38;5111686;28;20280;-85
2023/07/27 04:29:47;;;;;;;10.67;3.90;;;;;;;-143.21;56.61;71590.34;5112083;28;20208;-85
2023/07/27 04:32:14;;;;;;;3.93;3.20;;;;;;;-143.21;55.97;71604.22;5112068;28;20196;-84
2023/07/27 04:34:41;;;;;;;3.67;3.37;;;;;;;-143.21;56.10;71626.03;5111962;28;20219;-84
2023/07/27 04:37:09;;;;;;;5.57;3.60;;;;;;;-143.21;56.32;71637.94;5112089;28;20200;-83
2023/07/27 04:39:37;;;;;;;5.03;3.30;;;;;;;-143.21;56.61;71649.81;5111790;28;20568;-83
2023/07/27 04:42:04;;;;;;;4.77;3.73;;;;;;;-143.21;55.80;71641.91;5111641;28;20210;-80
2023/07/27 04:44:31;;;;;;;3.83;3.53;;;;;;;-143.21;55.64;71641.91;5111439;28;20224;-80
2023/07/27 04:46:58;;;;;;;4.97;3.90;;;;;;;-143.21;55.76;71631.97;5111543;28;20202;-80
2023/07/27 04:49:25;;;;;;;4.57;3.77;;;;;;;-143.21;55.29;71620.09;5111651;28;20211;-80
2023/07/27 04:51:51;;;;;;;8.80;3.70;;;;;;;-143.21;55.40;71608.19;5111441;28;20223;-80
2023/07/27 04:54:20;;;;;;;5.43;3.83;;;;;;;-143.21;55.31;71622.06;5112160;28;20196;-80
2023/07/27 04:56:47;;;;;;;4.60;4.00;;;;;;;-143.21;55.45;71639.91;5111443;28;20223;-80
2023/07/27 04:59:13;;;;;;;5.10;4.20;;;;;;;-143.21;55.54;71657.75;5111622;28;20264;-81
2023/07/27 05:01:40;;;;;;;4.03;3.73;;;;;;;-143.21;56.27;71683.53;5091531;28;20207;-81
2023/07/27 05:04:07;;;;;;;4.80;4.20;;;;;;;-143.21;56.86;71689.47;5091356;28;20586;-81
2023/07/27 05:06:34;;;;;;;4.30;3.90;;;;;;;-143.21;55.95;71671.63;5091140;28;20200;-81
2023/07/27 05:09:01;;;;;;;4.10;3.70;;;;;;;-143.21;55.69;71667.66;5091101;28;20656;-81
2023/07/27 05:11:30;;;;;;;4.57;3.60;;;;;;;-143.21;55.88;71673.63;5091781;28;20201;-82
2023/07/27 05:13:57;;;;;;;4.40;4.00;;;;;;;-143.21;55.86;71693.44;5091985;28;20231;-81
2023/07/27 05:16:24;;;;;;;5.47;4.10;;;;;;;-143.21;55.83;71683.53;5106285;28;20267;-83
2023/07/27 05:18:50;;;;;;;7.67;4.10;;;;;;;-143.21;55.68;71669.66;5113232;28;20184;-83
2023/07/27 05:21:17;;;;;;;6.37;4.40;;;;;;;-143.21;55.05;71671.63;5112685;28;20675;-83
2023/07/27 05:23:44;;;;;;;3.87;3.43;;;;;;;-143.21;55.34;71665.69;5112750;28;20184;-84
2023/07/27 05:26:11;;;;;;;9.13;4.00;;;;;;;-143.21;55.03;71659.75;5113316;28;20195;-83
2023/07/27 05:28:39;;;;;;;4.37;3.97;;;;;;;-143.21;55.17;71657.75;5112863;28;20200;-83
2023/07/27 05:31:06;;;;;;;4.50;4.10;;;;;;;-143.21;55.32;71643.88;5130227;27;20202;-83
2023/07/27 05:33:33;;;;;;;6.07;4.00;;;;;;;-143.21;53.93;71586.38;5136132;27;20278;-84
2023/07/27 05:36:00;;;;;;;6.00;4.00;;;;;;;-143.21;53.28;71584.41;5119998;27;20584;-84
2023/07/27 05:38:26;;;;;;;3.97;3.60;;;;;;;-143.21;53.94;71628.00;5114774;28;20207;-84
2023/07/27 05:40:53;;;;;;;5.57;3.57;;;;;;;-143.21;54.54;71653.78;5114427;28;20203;-84
2023/07/27 05:43:20;;;;;;;4.83;4.00;;;;;;;-143.21;55.40;71677.59;5114658;28;20622;-85
2023/07/27 05:45:50;;;;;;;4.60;4.20;;;;;;;-143.21;56.21;71689.47;5114756;28;20220;-84
2023/07/27 05:48:17;;;;;;;5.53;4.20;;;;;;;-143.21;56.85;71691.47;5115212;28;20184;-84
2023/07/27 05:50:44;;;;;;;6.80;4.40;;;;;;;-143.21;56.77;71667.66;5114875;28;20323;-83
2023/07/27 05:53:11;;;;;;;4.93;4.40;;;;;;;-143.21;55.92;71663.72;5114877;28;20575;-84
2023/07/27 05:55:37;;;;;;;4.53;4.13;;;;;;;-143.21;55.90;71683.53;5114156;28;20200;-83
2023/07/27 05:58:04;;;;;;;6.93;4.13;;;;;;;-143.21;56.23;71705.34;5114433;28;20191;-84
2023/07/27 06:00:33;;;;;;;5.90;4.03;;;;;;;-143.21;55.88;71715.25;5125259;27;20677;-84
2023/07/27 06:03:01;;;;;;;6.87;3.80;;;;;;;-143.21;55.40;71727.16;5135555;27;20199;-84
2023/07/27 06:05:28;;;;;;;11.07;3.67;;;;;;;-143.21;55.23;71737.06;5113537;27;20645;-83
2023/07/27 06:07:54;;;;;;;9.30;4.00;;;;;;;-143.21;54.97;71729.13;5111998;28;20668;-84
2023/07/27 06:10:21;;;;;;;3.67;3.30;;;;;;;-143.21;54.64;71705.34;5112651;27;20208;-84
2023/07/27 06:12:48;;;;;;;3.97;3.60;;;;;;;-143.21;54.22;71679.56;5112218;27;20240;-84
2023/07/27 06:15:15;;;;;;;4.93;3.93;;;;;;;-143.21;53.73;71659.75;5119394;27;21460;-84
2023/07/27 06:17:42;;;;;;;3.70;3.40;;;;;;;-143.21;53.24;71655.78;5112701;28;20208;-84
2023/07/27 06:20:11;;;;;;;3.47;3.10;;;;;;;-143.21;52.85;71655.78;5108492;28;20201;-84
2023/07/27 06:22:37;;;;;;;3.47;3.17;;;;;;;-143.21;51.97;71655.78;5112787;27;20208;-85
2023/07/27 06:25:05;;;;;;;3.40;3.10;;;;;;;-143.21;51.86;71620.09;5113020;28;20227;-84
2023/07/27 06:27:31;;;;;;;3.20;2.90;;;;;;;-143.21;50.78;71588.38;5112676;27;20211;-81
2023/07/27 06:29:59;;;;;;;3.47;2.90;;;;;;;-143.21;49.29;71578.44;5117937;27;20250;-81
2023/07/27 06:32:27;;;;;;;3.90;2.67;;;;;;;-143.21;49.42;71544.75;5112072;27;20779;-80
2023/07/27 06:34:54;;;;;;;2.83;2.60;;;;;;;-143.21;47.99;71507.06;5116548;27;20286;-80
2023/07/27 06:37:22;;;;;;;3.20;2.90;;;;;;;-143.21;47.68;71501.13;5112160;27;20623;-80
2023/07/27 06:39:49;;;;;;;4.78;2.88;;;;;;;-143.21;46.66;71513.03;5111696;27;20579;-80
2023/07/27 06:42:15;;;;;;;4.63;2.80;;;;;;;-143.21;47.51;71528.88;5112458;28;20594;-83
2023/07/27 06:44:42;;;;;;;2.83;2.63;;;;;;;-143.21;46.26;71534.81;5112654;28;20223;-84
2023/07/27 06:47:09;;;;;;;3.80;2.55;;;;;;;-143.21;47.48;71473.38;5112177;27;20576;-83
2023/07/27 06:49:36;;;;;;;2.85;2.50;;;;;;;-143.21;46.10;71415.88;5117246;27;20212;-84
2023/07/27 06:52:04;;;;;;;4.32;2.67;;;;;;;-143.21;46.55;71382.16;5110707;27;20879;-83
2023/07/27 06:54:32;;;;;;;3.65;2.90;;;;;;;-143.21;44.46;71378.19;5114771;27;20213;-84
2023/07/27 06:56:59;;;;;;;3.50;2.38;;;;;;;-143.21;46.07;71364.31;5112858;27;20203;-83
2023/07/27 06:59:26;;;;;;;3.53;2.50;;;;;;;-143.21;44.94;71350.44;5119596;27;20199;-83
2023/07/27 07:01:54;;;;;;;2.78;2.55;;;;;;;-143.21;44.34;71324.66;5112477;27;20227;-83
2023/07/27 07:04:20;;;;;;;3.88;3.17;;;;;;;-143.21;45.14;71302.84;5112877;27;20256;-83
2023/07/27 07:06:48;;;;;;;13.65;5.80;;;;;;;-143.21;44.11;71263.22;5112262;27;20196;-82
2023/07/27 07:09:14;;;;;;;6.82;5.30;;;;;;;-143.21;44.00;71265.19;5111605;27;20330;-81
2023/07/27 07:11:43;;;;;;;5.47;3.45;;;;;;;-143.21;42.77;71259.25;5101941;27;20214;-81
2023/07/27 07:14:10;;;;;;;5.13;2.70;;;;;;;-143.21;42.76;71275.09;5111760;28;20241;-83
2023/07/27 07:16:37;;;;;;;3.35;2.80;;;;;;;-143.21;42.59;71279.06;5111219;28;20223;-84
2023/07/27 07:19:03;;;;;;;2.83;2.53;;;;;;;-143.21;42.78;71304.84;5111401;27;20703;-83
2023/07/27 07:21:31;;;;;;;3.35;2.60;;;;;;;-143.21;43.17;71310.78;5112254;27;20200;-83
2023/07/27 07:23:58;;;;;;;5.85;2.53;;;;;;;-143.21;43.33;71330.63;5110693;27;20236;-84
2023/07/27 07:26:24;;;;;;;6.90;2.80;;;;;;;-143.21;44.50;71320.69;5111041;27;20234;-84
2023/07/27 07:28:53;;;;;;;3.42;2.80;;;;;;;-143.21;43.40;71296.91;5110016;27;20306;-84
2023/07/27 07:31:20;;;;;;;6.40;3.10;;;;;;;-143.21;42.98;71283.03;5120258;27;20207;-84
2023/07/27 07:33:47;;;;;;;6.95;4.10;;;;;;;-143.21;43.33;71326.66;5116903;27;20576;-84
2023/07/27 07:36:14;;;;;;;9.10;3.65;;;;;;;-143.21;45.40;71316.75;5119118;27;20194;-84
2023/07/27 07:38:41;;;;;;;5.10;3.40;;;;;;;-143.21;44.10;71338.53;5109802;27;20196;-84
2023/07/27 07:41:08;;;;;;;7.40;2.83;;;;;;;-143.21;43.20;71326.66;5111194;27;20206;-81
2023/07/27 07:43:39;;;;;;;4.38;2.83;;;;;;;-143.21;43.27;71366.31;5110654;27;20584;-83
2023/07/27 07:46:10;;;;;;;4.43;2.90;;;;;;;-143.21;43.35;71338.53;5110055;27;20222;-82
2023/07/27 07:48:38;;;;;;;6.35;3.03;;;;;;;-143.21;42.97;71308.81;5110167;28;20700;-82
2023/07/27 07:51:09;;;;;;;7.70;3.00;;;;;;;-143.21;41.78;71314.75;5110727;28;20228;-82
2023/07/27 07:53:36;;;;;;;3.70;2.80;;;;;;;-143.21;41.99;71304.84;5111044;28;20203;-81
2023/07/27 07:56:03;;;;;;;3.28;2.50;;;;;;;-143.21;42.00;71312.78;5110568;28;20208;-83
2023/07/27 07:58:30;;;;;;;5.32;2.20;;;;;;;-143.21;42.43;71318.72;5109828;27;20204;-82
2023/07/27 08:00:57;;;;;;;10.95;2.78;;;;;;;-143.21;41.65;71302.84;5109591;27;20196;-81
2023/07/27 08:03:25;;;;;;;5.68;2.40;;;;;;;-143.21;41.50;71340.53;5109558;28;20203;-82
2023/07/27 08:05:52;;;;;;;8.57;3.30;;;;;;;-143.21;41.53;71320.69;5111900;27;20228;-81
2023/07/27 08:08:19;;;;;;;3.35;2.80;;;;;;;-143.21;41.99;71312.78;5115104;27;20203;-82
2023/07/27 08:10:46;;;;;;;10.63;2.70;;;;;;;-143.21;42.07;71324.66;5116781;27;20231;-81
2023/07/27 08:13:13;;;;;;;5.95;2.72;;;;;;;-143.21;41.72;71338.53;5110150;27;20319;-81
2023/07/27 08:15:40;;;;;;;11.30;3.00;;;;;;;-143.21;41.48;71328.63;5122368;27;20219;-81
2023/07/27 08:18:07;;;;;;;6.85;3.00;;;;;;;-143.21;41.60;71294.94;5126418;27;20203;-81
2023/07/27 08:20:35;;;;;;;5.60;2.90;;;;;;;-143.21;40.88;71290.97;5109423;27;20736;-82
2023/07/27 08:23:02;;;;;;;9.40;3.15;;;;;;;-143.21;41.18;71288.97;5109884;27;20208;-81
2023/07/27 08:25:29;;;;;;;7.97;2.50;;;;;;;-143.21;40.83;71285.03;5112461;27;20603;-80
2023/07/27 08:27:56;;;;;;;9.80;2.85;;;;;;;-143.21;41.02;71269.16;5109918;28;20292;-81
2023/07/27 08:30:23;;;;;;;8.27;3.25;;;;;;;-143.21;40.93;71306.81;5120768;27;20202;-80
2023/07/27 08:32:49;;;;;;;7.55;2.80;;;;;;;-143.21;41.34;71312.78;5115492;27;20206;-80
2023/07/27 08:35:16;;;;;;;3.28;2.50;;;;;;;-143.21;41.12;71312.78;5111331;28;20223;-81
2023/07/27 08:37:45;;;;;;;5.45;2.72;;;;;;;-143.21;41.67;71330.63;5110005;27;20203;-80
2023/07/27 08:40:12;;;;;;;7.13;2.95;;;;;;;-143.21;41.99;71348.47;5119585;27;20214;-80
2023/07/27 08:42:39;;;;;;;5.72;2.38;;;;;;;-143.21;42.66;71338.53;5110136;28;20212;-80
2023/07/27 08:45:07;;;;;;;7.07;2.65;;;;;;;-143.21;41.74;71322.69;5113078;27;20303;-81
2023/07/27 08:47:35;;;;;;;7.40;2.45;;;;;;;-143.21;41.70;71318.72;5110133;28;20226;-79
2023/07/27 08:50:03;;;;;;;8.23;2.78;;;;;;;-143.21;41.72;71283.03;5110249;28;20207;-79
2023/07/27 08:52:31;;;;;;;7.75;2.58;;;;;;;-143.21;41.43;71271.13;5109805;28;20285;-79
2023/07/27 08:55:11;;;;;;;5.13;2.75;;;;;;;-143.21;42.44;71318.72;5119903;27;20199;-80
2023/07/27 08:57:49;;;;;;;12.20;4.40;;;;;;;-143.21;42.70;71292.94;5110445;28;20252;-82
2023/07/27 09:00:28;;;;;;;7.85;2.50;;;;;;;-143.21;42.49;71283.03;5118859;27;20203;-80
2023/07/27 09:03:14;;;;;;;6.85;2.83;;;;;;;-143.21;41.81;71253.28;5119787;27;20211;-80
2023/07/27 09:05:42;;;;;;;22.05;2.97;;;;;;;-143.21;41.38;71247.34;5112229;28;20316;-80
2023/07/27 09:08:10;;;;;;;6.32;2.42;;;;;;;-143.21;40.96;71271.13;5109030;27;20675;-81
2023/07/27 09:10:40;;;;;;;2.60;2.10;;;;;;;-143.21;42.20;71281.06;5113206;28;20693;-81
2023/07/27 09:13:08;;;;;;;13.57;2.50;;;;;;;-143.21;42.20;71279.06;5114831;27;20367;-81
2023/07/27 09:15:36;;;;;;;10.77;2.33;;;;;;;-143.21;42.52;71308.81;5114265;27;20678;-80
2023/07/27 09:18:10;;;;;;;7.07;2.50;;;;;;;-143.21;42.97;71312.78;5114122;27;20681;-81
2023/07/27 09:20:37;;;;;;;3.65;1.83;;;;;;;-143.21;42.60;71306.81;5114386;27;20206;-81
2023/07/27 09:23:04;;;;;;;5.22;2.05;;;;;;;-143.21;41.88;71300.88;5113168;28;20203;-80
2023/07/27 09:25:30;;;;;;;2.08;1.73;;;;;;;-143.21;42.27;71277.09;5124851;27;20216;-81
2023/07/27 09:27:59;;;;;;;3.22;2.28;;;;;;;-143.21;41.96;71277.09;5112853;27;20666;-81
2023/07/27 09:30:26;;;;;;;7.68;2.47;;;;;;;-143.21;41.93;71261.22;5118816;27;20227;-80
2023/07/27 09:32:53;;;;;;;6.45;2.63;;;;;;;-143.21;41.69;71239.41;5124436;27;20199;-80
2023/07/27 09:35:22;;;;;;;5.45;2.35;;;;;;;-143.21;41.17;71249.34;5113588;27;20665;-80
2023/07/27 09:37:51;;;;;;;4.22;2.60;;;;;;;-143.21;41.62;71253.28;5113755;27;20196;-80
2023/07/27 09:40:21;;;;;;;7.18;2.85;;;;;;;-143.21;41.17;71283.03;5113501;28;20592;-80
2023/07/27 09:42:48;;;;;;;6.82;2.85;;;;;;;-143.21;41.36;71261.22;5112886;27;20208;-80
2023/07/27 09:45:16;;;;;;;3.60;2.70;;;;;;;-143.21;40.18;71243.38;5126541;27;21408;-80
2023/07/27 09:47:43;;;;;;;4.63;2.88;;;;;;;-143.21;40.31;71253.28;5100928;27;20199;-81
2023/07/27 09:50:11;;;;;;;7.95;2.90;;;;;;;-143.21;41.02;71265.19;5118351;27;20200;-80
2023/07/27 09:52:40;;;;;;;4.78;2.25;;;;;;;-143.21;40.38;71261.22;5122078;27;20243;-80
2023/07/27 09:55:07;;;;;;;6.25;2.70;;;;;;;-143.21;40.31;71267.19;5111453;27;20341;-83
2023/07/27 09:57:34;;;;;;;10.02;2.38;;;;;;;-143.21;40.31;71237.44;5112738;28;20265;-83
2023/07/27 10:00:06;;;;;;;3.65;2.55;;;;;;;-143.21;40.06;71229.50;5112421;27;20222;-80
2023/07/27 10:02:35;;;;;;;2.78;2.35;;;;;;;-143.21;39.79;71243.38;5112240;27;20215;-80
2023/07/27 10:05:04;;;;;;;10.68;2.28;;;;;;;-143.21;40.00;71219.59;5106939;27;20291;-83
2023/07/27 10:07:31;;;;;;;3.65;2.42;;;;;;;-143.21;39.18;71181.94;5113607;27;20200;-79
2023/07/27 10:10:35;;;;;;;5.63;2.30;;;;;;;-143.21;38.36;71140.28;5113874;27;20195;-80
2023/07/27 10:13:07;;;;;;;8.40;2.40;;;;;;;-143.21;38.16;71120.47;5125924;27;20199;-80
2023/07/27 10:15:39;;;;;;;3.85;2.40;;;;;;;-143.21;38.02;71098.66;5112055;27;20682;-80
2023/07/27 10:18:07;;;;;;;4.30;2.85;;;;;;;-143.21;36.45;71084.78;5113134;27;20228;-80
2023/07/27 10:20:35;;;;;;;8.05;2.75;;;;;;;-143.21;35.74;71082.81;5112539;27;20215;-80
2023/07/27 10:23:10;;;;;;;3.13;2.35;;;;;;;-143.21;35.89;71057.03;5113111;28;20654;-80
2023/07/27 10:26:02;;;;;;;4.78;2.30;;;;;;;-143.21;35.42;71061.00;5123887;27;20720;-81
2023/07/27 10:28:36;;;;;;;8.60;2.30;;;;;;;-143.21;35.80;71037.22;5111953;27;20236;-82
2023/07/27 10:31:19;;;;;;;6.38;2.50;;;;;;;-143.21;35.69;71001.53;5107375;27;20204;-81
2023/07/27 10:33:47;;;;;;;5.28;2.33;;;;;;;-143.21;35.62;70971.78;5112951;27;20275;-82
2023/07/27 10:36:14;;;;;;;4.65;2.63;;;;;;;-143.21;35.02;70971.78;5112414;28;20282;-82
2023/07/27 10:38:41;;;;;;;9.65;2.70;;;;;;;-143.21;34.95;70991.63;5112686;27;20203;-80
2023/07/27 10:41:15;;;;;;;8.90;2.70;;;;;;;-143.21;35.00;70999.53;5111310;27;20210;-80
2023/07/27 10:44:16;;;;;;;10.63;2.60;;;;;;;-143.21;35.30;70993.59;5111153;27;20585;-79
2023/07/27 10:46:46;;;;;;;4.05;2.75;;;;;;;-143.21;35.12;70949.97;5118787;27;20219;-81
2023/07/27 10:49:18;;;;;;;4.82;2.78;;;;;;;-143.21;35.20;70938.09;5116224;27;20227;-81
2023/07/27 10:51:46;;;;;;;8.73;2.80;;;;;;;-143.21;35.24;70977.72;5108386;27;20243;-80
2023/07/27 10:54:15;;;;;;;6.93;3.03;;;;;;;-143.21;36.29;71001.53;5111284;27;20299;-80
2023/07/27 10:56:44;;;;;;;12.70;2.88;;;;;;;-143.21;35.40;70973.78;5111449;27;20236;-81
2023/07/27 10:59:15;;;;;;;8.63;3.00;;;;;;;-143.21;35.13;70904.38;5123701;27;20196;-81
2023/07/27 11:01:42;;;;;;;3.42;2.92;;;;;;;-143.21;34.93;70908.34;5123213;27;20212;-80
2023/07/27 11:04:10;;;;;;;7.25;3.03;;;;;;;-143.21;34.79;70910.34;5111634;28;20200;-81
2023/07/27 11:06:47;;;;;;;5.60;2.70;;;;;;;-143.21;33.89;70940.06;5122136;27;20588;-80
2023/07/27 11:09:15;;;;;;;5.20;2.75;;;;;;;-143.21;34.42;70916.28;5117888;27;20204;-80
2023/07/27 11:11:43;;;;;;;5.63;2.75;;;;;;;-143.21;34.98;70906.38;5111445;27;20196;-80
2023/07/27 11:14:10;;;;;;;7.25;3.17;;;;;;;-143.21;33.88;70860.78;5111840;27;20596;-80
2023/07/27 11:16:38;;;;;;;9.65;2.80;;;;;;;-143.21;34.01;70852.84;5111657;27;20299;-79
2023/07/27 11:19:09;;;;;;;7.38;3.00;;;;;;;-143.21;33.74;70817.16;5111392;27;20226;-81
2023/07/27 11:21:39;;;;;;;8.70;2.88;;;;;;;-143.21;33.19;70805.28;5112419;27;20204;-81
2023/07/27 11:24:09;;;;;;;3.88;2.80;;;;;;;-143.21;32.88;70813.19;5112384;27;20207;-81